Aérodrome :
LOGIN :

S'inscrire | Disclaimer

   EN    FR    IT 

 










Légende :    VFR   VFR Marginal   IFR   IFR Intensif   IFR Très Intensif
Visi : 
Plafond : 
>= 8 km
>= 3000ft
5 à 8 km
1000 à 3000 ft
1500m à 5 km
500 à 1000 ft
800 à 1500m
200 à 500 ft
< 800m
< 200 ft
Symboles :   Orages  Brouillard  Fortes neiges  Fortes précipitations  Vent > 20 kt
SIGMETs :   Divers  Orages  Givrage  Turbulence  Onde Orograph.  Cendres Volcan.







- Altitude de l'aérodrome : 512 ft
- Code IATA : URO
- Voir les cartes d'approche


LFOP - Rouen Vallée de Seine

DERNIER METAR :
  • 250630Z AUTO 34007KT CAVOK 05/M02 Q1013 NOSIG

METARs EXPIRÉS :
  • 250600Z AUTO 34009KT CAVOK 05/M02 Q1013 NOSIG
  • 250530Z AUTO 34008KT CAVOK 05/M02 Q1012 NOSIG
  • 250500Z AUTO 35008KT 310V010 CAVOK 05/M02 Q1012
  • 250430Z AUTO 35009KT CAVOK 05/M02 Q1012
  • 250400Z AUTO 34011KT 9999 FEW024 SCT049 OVC056 06/M01 Q1012

TAF TAF LFOP
Valide du 25 à 06h jusqu'au 26 à 06h UTC


250500Z 2506/2606 35012KT 9999 SCT030
TEMPO 2603/2606 3000 SHRA BKN015CB
ATIS : +33 2 35 80 80 34
Météo : +33 2 32 86 52 80
Pas de NOTAMs connus pour ce terrain.



MET'MAP, la Météo Aéronautique d'un coup d'oeil ! - Copyright ORBIFLY Décembre 2007 - Disclaimer

ORBIFLY MET'MAP TEAM :

Programmation & Développement : Alexandra Zaïnal
Conception & Développement : Baudouin d'Aumeries
Co-Programmation & Développement : Marc-Olivier Méhu
Soutien technique & logistique : Manuel Goepfert

Contact : metmap@orbifly.com




SOURCES & CREDITS :

   NOAA